sensor_id;sensor_type;location;lat;lon;timestamp;P1;durP1;ratioP1;P2;durP2;ratioP2
51883;SDS011;37915;53.254;6.598;2022-09-14T00:02:04;7.80;;;1.98;;
51883;SDS011;37915;53.254;6.598;2022-09-14T00:04:29;5.60;;;1.50;;
51883;SDS011;37915;53.254;6.598;2022-09-14T00:06:55;4.07;;;1.70;;
51883;SDS011;37915;53.254;6.598;2022-09-14T00:09:22;5.97;;;1.63;;
51883;SDS011;37915;53.254;6.598;2022-09-14T00:11:48;4.95;;;2.00;;
51883;SDS011;37915;53.254;6.598;2022-09-14T00:14:15;4.60;;;1.98;;
51883;SDS011;37915;53.254;6.598;2022-09-14T00:16:42;4.20;;;1.60;;
51883;SDS011;37915;53.254;6.598;2022-09-14T00:19:19;8.55;;;1.90;;
51883;SDS011;37915;53.254;6.598;2022-09-14T00:21:51;6.78;;;2.20;;
51883;SDS011;37915;53.254;6.598;2022-09-14T00:24:19;6.70;;;2.33;;
51883;SDS011;37915;53.254;6.598;2022-09-14T00:26:45;6.00;;;2.00;;
51883;SDS011;37915;53.254;6.598;2022-09-14T00:29:10;4.85;;;1.80;;
51883;SDS011;37915;53.254;6.598;2022-09-14T00:31:37;6.70;;;2.00;;
51883;SDS011;37915;53.254;6.598;2022-09-14T00:34:04;6.90;;;1.80;;
51883;SDS011;37915;53.254;6.598;2022-09-14T00:36:32;3.97;;;1.50;;
51883;SDS011;37915;53.254;6.598;2022-09-14T00:39:01;7.20;;;1.58;;
51883;SDS011;37915;53.254;6.598;2022-09-14T00:41:28;8.20;;;2.08;;
51883;SDS011;37915;53.254;6.598;2022-09-14T00:44:02;5.47;;;1.90;;
51883;SDS011;37915;53.254;6.598;2022-09-14T00:46:35;6.57;;;2.30;;
51883;SDS011;37915;53.254;6.598;2022-09-14T00:49:01;8.88;;;2.03;;
51883;SDS011;37915;53.254;6.598;2022-09-14T00:51:30;9.10;;;1.75;;
51883;SDS011;37915;53.254;6.598;2022-09-14T00:53:57;4.05;;;1.42;;
51883;SDS011;37915;53.254;6.598;2022-09-14T00:56:26;6.88;;;1.80;;
51883;SDS011;37915;53.254;6.598;2022-09-14T00:58:52;6.60;;;1.77;;
51883;SDS011;37915;53.254;6.598;2022-09-14T01:01:21;5.90;;;1.55;;
51883;SDS011;37915;53.254;6.598;2022-09-14T01:03:48;6.18;;;2.00;;
51883;SDS011;37915;53.254;6.598;2022-09-14T01:06:18;6.00;;;1.77;;
51883;SDS011;37915;53.254;6.598;2022-09-14T01:19:40;5.65;;;1.73;;
51883;SDS011;37915;53.254;6.598;2022-09-14T01:22:20;3.67;;;1.35;;
51883;SDS011;37915;53.254;6.598;2022-09-14T01:28:14;5.80;;;1.50;;
51883;SDS011;37915;53.254;6.598;2022-09-14T01:30:47;3.08;;;1.20;;
51883;SDS011;37915;53.254;6.598;2022-09-14T01:33:30;7.78;;;1.60;;
51883;SDS011;37915;53.254;6.598;2022-09-14T01:35:59;2.65;;;1.15;;
51883;SDS011;37915;53.254;6.598;2022-09-14T01:38:32;5.28;;;2.15;;
51883;SDS011;37915;53.254;6.598;2022-09-14T01:40:59;5.90;;;1.67;;
51883;SDS011;37915;53.254;6.598;2022-09-14T01:43:29;5.88;;;1.70;;
51883;SDS011;37915;53.254;6.598;2022-09-14T01:46:02;6.63;;;1.58;;
51883;SDS011;37915;53.254;6.598;2022-09-14T01:48:34;4.07;;;1.55;;
51883;SDS011;37915;53.254;6.598;2022-09-14T01:51:04;4.80;;;1.38;;
51883;SDS011;37915;53.254;6.598;2022-09-14T01:53:39;3.75;;;1.50;;
51883;SDS011;37915;53.254;6.598;2022-09-14T01:59:13;5.03;;;1.63;;
51883;SDS011;37915;53.254;6.598;2022-09-14T02:01:40;9.80;;;2.53;;
51883;SDS011;37915;53.254;6.598;2022-09-14T02:04:10;9.32;;;1.70;;
51883;SDS011;37915;53.254;6.598;2022-09-14T02:06:42;7.32;;;1.80;;
51883;SDS011;37915;53.254;6.598;2022-09-14T02:09:12;4.28;;;1.63;;
51883;SDS011;37915;53.254;6.598;2022-09-14T02:11:41;6.25;;;1.77;;
51883;SDS011;37915;53.254;6.598;2022-09-14T02:14:07;6.05;;;2.00;;
51883;SDS011;37915;53.254;6.598;2022-09-14T02:16:33;7.97;;;1.90;;
51883;SDS011;37915;53.254;6.598;2022-09-14T02:19:00;5.18;;;1.88;;
51883;SDS011;37915;53.254;6.598;2022-09-14T02:21:29;6.88;;;1.88;;
51883;SDS011;37915;53.254;6.598;2022-09-14T02:23:57;6.18;;;1.50;;
51883;SDS011;37915;53.254;6.598;2022-09-14T02:26:24;6.65;;;2.10;;
51883;SDS011;37915;53.254;6.598;2022-09-14T02:28:50;4.45;;;1.50;;
51883;SDS011;37915;53.254;6.598;2022-09-14T02:34:08;4.15;;;1.30;;
51883;SDS011;37915;53.254;6.598;2022-09-14T02:37:09;5.30;;;1.75;;
51883;SDS011;37915;53.254;6.598;2022-09-14T02:45:17;4.82;;;1.80;;
51883;SDS011;37915;53.254;6.598;2022-09-14T02:50:21;7.55;;;1.80;;
51883;SDS011;37915;53.254;6.598;2022-09-14T02:53:09;6.45;;;1.65;;
51883;SDS011;37915;53.254;6.598;2022-09-14T02:55:40;7.13;;;1.52;;
51883;SDS011;37915;53.254;6.598;2022-09-14T02:58:13;5.82;;;1.70;;
51883;SDS011;37915;53.254;6.598;2022-09-14T03:00:41;8.18;;;1.77;;
51883;SDS011;37915;53.254;6.598;2022-09-14T03:03:09;4.00;;;1.92;;
51883;SDS011;37915;53.254;6.598;2022-09-14T03:05:37;5.05;;;2.38;;
51883;SDS011;37915;53.254;6.598;2022-09-14T03:08:04;5.47;;;1.80;;
51883;SDS011;37915;53.254;6.598;2022-09-14T03:10:30;7.85;;;1.95;;
51883;SDS011;37915;53.254;6.598;2022-09-14T03:12:57;6.47;;;1.88;;
51883;SDS011;37915;53.254;6.598;2022-09-14T03:15:22;6.88;;;2.30;;
51883;SDS011;37915;53.254;6.598;2022-09-14T03:17:49;6.68;;;1.85;;
51883;SDS011;37915;53.254;6.598;2022-09-14T03:20:16;3.30;;;1.65;;
51883;SDS011;37915;53.254;6.598;2022-09-14T03:22:45;5.28;;;2.35;;
51883;SDS011;37915;53.254;6.598;2022-09-14T03:25:11;4.70;;;2.00;;
51883;SDS011;37915;53.254;6.598;2022-09-14T03:27:38;5.13;;;1.98;;
51883;SDS011;37915;53.254;6.598;2022-09-14T03:30:04;5.75;;;1.90;;
51883;SDS011;37915;53.254;6.598;2022-09-14T03:32:30;9.15;;;2.22;;
51883;SDS011;37915;53.254;6.598;2022-09-14T03:34:56;4.68;;;1.70;;
51883;SDS011;37915;53.254;6.598;2022-09-14T03:37:23;4.82;;;1.83;;
51883;SDS011;37915;53.254;6.598;2022-09-14T03:39:49;4.20;;;2.22;;
51883;SDS011;37915;53.254;6.598;2022-09-14T03:42:15;5.03;;;2.05;;
51883;SDS011;37915;53.254;6.598;2022-09-14T03:44:40;5.43;;;1.98;;
51883;SDS011;37915;53.254;6.598;2022-09-14T03:47:06;4.57;;;1.85;;
51883;SDS011;37915;53.254;6.598;2022-09-14T03:49:33;5.70;;;1.63;;
51883;SDS011;37915;53.254;6.598;2022-09-14T03:51:59;4.85;;;1.70;;
51883;SDS011;37915;53.254;6.598;2022-09-14T03:54:25;3.95;;;2.00;;
51883;SDS011;37915;53.254;6.598;2022-09-14T03:56:51;5.80;;;2.17;;
51883;SDS011;37915;53.254;6.598;2022-09-14T03:59:18;4.85;;;1.70;;
51883;SDS011;37915;53.254;6.598;2022-09-14T04:01:44;5.38;;;1.85;;
51883;SDS011;37915;53.254;6.598;2022-09-14T04:04:10;6.78;;;1.80;;
51883;SDS011;37915;53.254;6.598;2022-09-14T04:06:35;8.05;;;1.83;;
51883;SDS011;37915;53.254;6.598;2022-09-14T04:09:01;6.97;;;1.60;;
51883;SDS011;37915;53.254;6.598;2022-09-14T04:11:27;4.47;;;1.65;;
51883;SDS011;37915;53.254;6.598;2022-09-14T04:13:58;4.60;;;1.65;;
51883;SDS011;37915;53.254;6.598;2022-09-14T04:16:26;7.80;;;1.90;;
51883;SDS011;37915;53.254;6.598;2022-09-14T04:18:52;3.70;;;1.73;;
51883;SDS011;37915;53.254;6.598;2022-09-14T04:21:19;4.70;;;1.70;;
51883;SDS011;37915;53.254;6.598;2022-09-14T04:23:47;5.80;;;1.90;;
51883;SDS011;37915;53.254;6.598;2022-09-14T04:26:17;7.13;;;2.42;;
51883;SDS011;37915;53.254;6.598;2022-09-14T04:28:44;5.75;;;1.90;;
51883;SDS011;37915;53.254;6.598;2022-09-14T04:31:10;7.20;;;2.40;;
51883;SDS011;37915;53.254;6.598;2022-09-14T04:33:37;7.32;;;2.30;;
51883;SDS011;37915;53.254;6.598;2022-09-14T04:36:06;7.20;;;2.17;;
51883;SDS011;37915;53.254;6.598;2022-09-14T04:38:42;7.05;;;2.38;;
51883;SDS011;37915;53.254;6.598;2022-09-14T04:41:10;5.95;;;1.95;;
51883;SDS011;37915;53.254;6.598;2022-09-14T04:43:41;6.90;;;2.17;;
51883;SDS011;37915;53.254;6.598;2022-09-14T04:46:14;6.63;;;1.90;;
51883;SDS011;37915;53.254;6.598;2022-09-14T04:48:44;7.30;;;2.28;;
51883;SDS011;37915;53.254;6.598;2022-09-14T04:51:11;4.70;;;2.00;;
51883;SDS011;37915;53.254;6.598;2022-09-14T04:53:40;5.80;;;2.05;;
51883;SDS011;37915;53.254;6.598;2022-09-14T04:56:07;5.03;;;1.70;;
51883;SDS011;37915;53.254;6.598;2022-09-14T04:58:35;5.03;;;1.80;;
51883;SDS011;37915;53.254;6.598;2022-09-14T05:01:07;5.07;;;1.77;;
51883;SDS011;37915;53.254;6.598;2022-09-14T05:03:35;5.60;;;2.00;;
51883;SDS011;37915;53.254;6.598;2022-09-14T05:06:03;6.45;;;1.83;;
51883;SDS011;37915;53.254;6.598;2022-09-14T05:08:32;5.50;;;1.80;;
51883;SDS011;37915;53.254;6.598;2022-09-14T05:10:59;4.40;;;1.65;;
51883;SDS011;37915;53.254;6.598;2022-09-14T05:13:25;5.35;;;1.70;;
51883;SDS011;37915;53.254;6.598;2022-09-14T05:15:50;6.85;;;1.95;;
51883;SDS011;37915;53.254;6.598;2022-09-14T05:18:16;8.23;;;1.98;;
51883;SDS011;37915;53.254;6.598;2022-09-14T05:20:42;6.22;;;2.08;;
51883;SDS011;37915;53.254;6.598;2022-09-14T05:23:08;7.50;;;2.30;;
51883;SDS011;37915;53.254;6.598;2022-09-14T05:25:34;4.50;;;2.10;;
51883;SDS011;37915;53.254;6.598;2022-09-14T05:28:00;6.50;;;2.15;;
51883;SDS011;37915;53.254;6.598;2022-09-14T05:30:25;8.10;;;2.33;;
51883;SDS011;37915;53.254;6.598;2022-09-14T05:32:51;5.85;;;2.40;;
51883;SDS011;37915;53.254;6.598;2022-09-14T05:35:17;8.38;;;2.17;;
51883;SDS011;37915;53.254;6.598;2022-09-14T05:37:43;5.85;;;2.30;;
51883;SDS011;37915;53.254;6.598;2022-09-14T05:40:09;6.18;;;1.73;;
51883;SDS011;37915;53.254;6.598;2022-09-14T05:42:35;4.80;;;1.88;;
51883;SDS011;37915;53.254;6.598;2022-09-14T05:45:00;5.22;;;1.85;;
51883;SDS011;37915;53.254;6.598;2022-09-14T05:47:29;5.85;;;1.65;;
51883;SDS011;37915;53.254;6.598;2022-09-14T05:49:55;6.53;;;1.65;;
51883;SDS011;37915;53.254;6.598;2022-09-14T05:52:22;9.00;;;2.00;;
51883;SDS011;37915;53.254;6.598;2022-09-14T05:54:48;4.55;;;1.83;;
51883;SDS011;37915;53.254;6.598;2022-09-14T05:57:14;4.88;;;1.48;;
51883;SDS011;37915;53.254;6.598;2022-09-14T05:59:39;9.35;;;1.92;;
51883;SDS011;37915;53.254;6.598;2022-09-14T06:02:05;5.22;;;1.77;;
51883;SDS011;37915;53.254;6.598;2022-09-14T06:04:31;3.85;;;1.35;;
51883;SDS011;37915;53.254;6.598;2022-09-14T06:06:56;3.95;;;1.50;;
51883;SDS011;37915;53.254;6.598;2022-09-14T06:09:22;4.60;;;1.40;;
51883;SDS011;37915;53.254;6.598;2022-09-14T06:11:48;6.53;;;2.00;;
51883;SDS011;37915;53.254;6.598;2022-09-14T06:14:14;6.63;;;1.90;;
51883;SDS011;37915;53.254;6.598;2022-09-14T06:16:43;6.45;;;1.92;;
51883;SDS011;37915;53.254;6.598;2022-09-14T06:19:10;3.25;;;1.10;;
51883;SDS011;37915;53.254;6.598;2022-09-14T06:21:36;5.18;;;1.50;;
51883;SDS011;37915;53.254;6.598;2022-09-14T06:24:02;5.40;;;1.80;;
51883;SDS011;37915;53.254;6.598;2022-09-14T06:26:28;5.45;;;1.45;;
51883;SDS011;37915;53.254;6.598;2022-09-14T06:28:54;10.82;;;2.20;;
51883;SDS011;37915;53.254;6.598;2022-09-14T06:31:20;4.63;;;1.40;;
51883;SDS011;37915;53.254;6.598;2022-09-14T06:33:49;4.40;;;1.52;;
51883;SDS011;37915;53.254;6.598;2022-09-14T06:36:25;6.85;;;1.50;;
51883;SDS011;37915;53.254;6.598;2022-09-14T06:38:52;6.65;;;1.80;;
51883;SDS011;37915;53.254;6.598;2022-09-14T06:41:20;4.15;;;1.33;;
51883;SDS011;37915;53.254;6.598;2022-09-14T06:43:47;3.85;;;1.48;;
51883;SDS011;37915;53.254;6.598;2022-09-14T06:46:17;9.15;;;1.50;;
51883;SDS011;37915;53.254;6.598;2022-09-14T06:48:45;6.32;;;1.95;;
51883;SDS011;37915;53.254;6.598;2022-09-14T06:51:20;3.58;;;1.33;;
51883;SDS011;37915;53.254;6.598;2022-09-14T06:53:48;8.13;;;1.30;;
51883;SDS011;37915;53.254;6.598;2022-09-14T06:56:15;5.22;;;1.67;;
51883;SDS011;37915;53.254;6.598;2022-09-14T06:58:41;5.22;;;1.70;;
51883;SDS011;37915;53.254;6.598;2022-09-14T07:01:11;5.45;;;1.60;;
51883;SDS011;37915;53.254;6.598;2022-09-14T07:03:39;5.07;;;1.80;;
51883;SDS011;37915;53.254;6.598;2022-09-14T07:06:10;6.13;;;1.50;;
51883;SDS011;37915;53.254;6.598;2022-09-14T07:08:38;5.03;;;1.70;;
51883;SDS011;37915;53.254;6.598;2022-09-14T07:11:05;3.75;;;1.55;;
51883;SDS011;37915;53.254;6.598;2022-09-14T07:13:32;7.53;;;2.40;;
51883;SDS011;37915;53.254;6.598;2022-09-14T07:15:58;4.05;;;1.60;;
51883;SDS011;37915;53.254;6.598;2022-09-14T07:18:24;5.20;;;1.40;;
51883;SDS011;37915;53.254;6.598;2022-09-14T07:20:52;5.00;;;1.42;;
51883;SDS011;37915;53.254;6.598;2022-09-14T07:23:18;4.72;;;1.35;;
51883;SDS011;37915;53.254;6.598;2022-09-14T07:25:44;5.68;;;1.95;;
51883;SDS011;37915;53.254;6.598;2022-09-14T07:28:09;3.88;;;1.60;;
51883;SDS011;37915;53.254;6.598;2022-09-14T07:30:35;8.38;;;1.90;;
51883;SDS011;37915;53.254;6.598;2022-09-14T07:33:03;7.13;;;1.60;;
51883;SDS011;37915;53.254;6.598;2022-09-14T07:35:29;3.58;;;1.42;;
51883;SDS011;37915;53.254;6.598;2022-09-14T07:37:56;5.47;;;1.85;;
51883;SDS011;37915;53.254;6.598;2022-09-14T07:40:22;5.13;;;1.45;;
51883;SDS011;37915;53.254;6.598;2022-09-14T07:42:51;5.78;;;1.60;;
51883;SDS011;37915;53.254;6.598;2022-09-14T07:45:17;3.45;;;1.30;;
51883;SDS011;37915;53.254;6.598;2022-09-14T07:47:44;5.85;;;1.60;;
51883;SDS011;37915;53.254;6.598;2022-09-14T07:50:10;4.30;;;1.58;;
51883;SDS011;37915;53.254;6.598;2022-09-14T07:52:36;7.40;;;1.60;;
51883;SDS011;37915;53.254;6.598;2022-09-14T07:55:03;4.40;;;1.58;;
51883;SDS011;37915;53.254;6.598;2022-09-14T07:57:30;8.25;;;1.95;;
51883;SDS011;37915;53.254;6.598;2022-09-14T07:59:55;5.55;;;1.58;;
51883;SDS011;37915;53.254;6.598;2022-09-14T08:02:22;5.55;;;1.70;;
51883;SDS011;37915;53.254;6.598;2022-09-14T08:04:49;7.10;;;1.77;;
51883;SDS011;37915;53.254;6.598;2022-09-14T08:07:17;9.00;;;1.70;;
51883;SDS011;37915;53.254;6.598;2022-09-14T08:09:42;5.07;;;1.77;;
51883;SDS011;37915;53.254;6.598;2022-09-14T08:12:09;6.28;;;1.55;;
51883;SDS011;37915;53.254;6.598;2022-09-14T08:14:35;5.22;;;1.20;;
51883;SDS011;37915;53.254;6.598;2022-09-14T08:17:10;4.53;;;1.35;;
51883;SDS011;37915;53.254;6.598;2022-09-14T08:19:46;6.82;;;1.77;;
51883;SDS011;37915;53.254;6.598;2022-09-14T08:22:33;3.97;;;1.20;;
51883;SDS011;37915;53.254;6.598;2022-09-14T08:25:00;7.75;;;1.20;;
51883;SDS011;37915;53.254;6.598;2022-09-14T08:27:31;6.38;;;1.50;;
51883;SDS011;37915;53.254;6.598;2022-09-14T08:30:03;5.95;;;1.50;;
51883;SDS011;37915;53.254;6.598;2022-09-14T08:32:34;3.90;;;1.20;;
51883;SDS011;37915;53.254;6.598;2022-09-14T08:34:59;4.55;;;1.65;;
51883;SDS011;37915;53.254;6.598;2022-09-14T08:37:28;6.53;;;1.40;;
51883;SDS011;37915;53.254;6.598;2022-09-14T08:39:54;6.10;;;1.38;;
51883;SDS011;37915;53.254;6.598;2022-09-14T08:42:20;7.40;;;1.40;;
51883;SDS011;37915;53.254;6.598;2022-09-14T08:44:53;5.97;;;1.63;;
51883;SDS011;37915;53.254;6.598;2022-09-14T08:47:27;6.15;;;1.60;;
51883;SDS011;37915;53.254;6.598;2022-09-14T08:50:00;5.05;;;1.25;;
51883;SDS011;37915;53.254;6.598;2022-09-14T08:52:31;8.18;;;1.27;;
51883;SDS011;37915;53.254;6.598;2022-09-14T09:11:40;4.57;;;1.38;;
51883;SDS011;37915;53.254;6.598;2022-09-14T09:14:16;6.53;;;1.10;;
51883;SDS011;37915;53.254;6.598;2022-09-14T09:16:46;3.35;;;1.00;;
51883;SDS011;37915;53.254;6.598;2022-09-14T09:19:20;6.55;;;1.58;;
51883;SDS011;37915;53.254;6.598;2022-09-14T09:21:54;5.03;;;1.10;;
51883;SDS011;37915;53.254;6.598;2022-09-14T09:24:26;4.80;;;1.05;;
51883;SDS011;37915;53.254;6.598;2022-09-14T09:27:00;5.25;;;1.30;;
51883;SDS011;37915;53.254;6.598;2022-09-14T09:29:26;6.57;;;1.70;;
51883;SDS011;37915;53.254;6.598;2022-09-14T09:31:52;6.38;;;1.33;;
51883;SDS011;37915;53.254;6.598;2022-09-14T09:34:23;5.45;;;1.42;;
51883;SDS011;37915;53.254;6.598;2022-09-14T09:36:53;5.43;;;1.48;;
51883;SDS011;37915;53.254;6.598;2022-09-14T09:39:23;6.75;;;1.60;;
51883;SDS011;37915;53.254;6.598;2022-09-14T09:41:52;4.65;;;1.35;;
51883;SDS011;37915;53.254;6.598;2022-09-14T09:44:25;5.78;;;1.33;;
51883;SDS011;37915;53.254;6.598;2022-09-14T09:46:57;5.68;;;1.10;;
51883;SDS011;37915;53.254;6.598;2022-09-14T09:49:27;7.15;;;1.30;;
51883;SDS011;37915;53.254;6.598;2022-09-14T09:52:10;8.00;;;1.40;;
51883;SDS011;37915;53.254;6.598;2022-09-14T09:54:40;7.00;;;1.27;;
51883;SDS011;37915;53.254;6.598;2022-09-14T09:57:27;4.10;;;1.05;;
51883;SDS011;37915;53.254;6.598;2022-09-14T10:02:36;5.78;;;1.30;;
51883;SDS011;37915;53.254;6.598;2022-09-14T10:07:59;6.50;;;1.35;;
51883;SDS011;37915;53.254;6.598;2022-09-14T10:12:58;5.72;;;1.23;;
51883;SDS011;37915;53.254;6.598;2022-09-14T10:15:25;3.35;;;1.10;;
51883;SDS011;37915;53.254;6.598;2022-09-14T10:20:38;2.88;;;1.10;;
51883;SDS011;37915;53.254;6.598;2022-09-14T10:25:43;4.60;;;1.30;;
51883;SDS011;37915;53.254;6.598;2022-09-14T10:33:44;5.03;;;0.95;;
51883;SDS011;37915;53.254;6.598;2022-09-14T10:39:45;4.70;;;1.00;;
51883;SDS011;37915;53.254;6.598;2022-09-14T10:42:30;3.88;;;1.15;;
51883;SDS011;37915;53.254;6.598;2022-09-14T10:45:06;3.35;;;0.95;;
51883;SDS011;37915;53.254;6.598;2022-09-14T10:50:48;5.75;;;1.33;;
51883;SDS011;37915;53.254;6.598;2022-09-14T10:56:02;4.00;;;1.30;;
51883;SDS011;37915;53.254;6.598;2022-09-14T11:18:51;6.65;;;1.38;;
51883;SDS011;37915;53.254;6.598;2022-09-14T11:24:06;5.20;;;1.35;;
51883;SDS011;37915;53.254;6.598;2022-09-14T11:27:20;5.32;;;1.20;;
51883;SDS011;37915;53.254;6.598;2022-09-14T11:29:51;5.03;;;1.63;;
51883;SDS011;37915;53.254;6.598;2022-09-14T11:32:24;3.58;;;1.05;;
51883;SDS011;37915;53.254;6.598;2022-09-14T11:38:28;4.45;;;1.40;;
51883;SDS011;37915;53.254;6.598;2022-09-14T11:41:02;3.33;;;1.10;;
51883;SDS011;37915;53.254;6.598;2022-09-14T11:43:57;4.32;;;1.25;;
51883;SDS011;37915;53.254;6.598;2022-09-14T11:46:34;5.13;;;1.48;;
51883;SDS011;37915;53.254;6.598;2022-09-14T11:49:12;8.75;;;1.50;;
51883;SDS011;37915;53.254;6.598;2022-09-14T11:52:31;2.60;;;1.05;;
51883;SDS011;37915;53.254;6.598;2022-09-14T11:54:41;8.93;;;1.70;;
51883;SDS011;37915;53.254;6.598;2022-09-14T11:57:11;5.90;;;1.67;;
51883;SDS011;37915;53.254;6.598;2022-09-14T12:10:20;4.88;;;1.40;;
51883;SDS011;37915;53.254;6.598;2022-09-14T12:17:52;4.38;;;1.00;;
51883;SDS011;37915;53.254;6.598;2022-09-14T12:25:53;5.45;;;1.30;;
51883;SDS011;37915;53.254;6.598;2022-09-14T12:43:50;6.80;;;1.45;;
51883;SDS011;37915;53.254;6.598;2022-09-14T12:51:21;5.68;;;1.27;;
51883;SDS011;37915;53.254;6.598;2022-09-14T12:56:51;4.13;;;1.05;;
51883;SDS011;37915;53.254;6.598;2022-09-14T13:05:13;4.85;;;1.17;;
51883;SDS011;37915;53.254;6.598;2022-09-14T13:07:41;6.38;;;1.50;;
51883;SDS011;37915;53.254;6.598;2022-09-14T13:10:15;7.80;;;1.20;;
51883;SDS011;37915;53.254;6.598;2022-09-14T13:12:55;7.35;;;1.50;;
51883;SDS011;37915;53.254;6.598;2022-09-14T13:15:26;5.45;;;1.70;;
51883;SDS011;37915;53.254;6.598;2022-09-14T13:17:56;4.32;;;1.30;;
51883;SDS011;37915;53.254;6.598;2022-09-14T13:20:28;5.57;;;1.27;;
51883;SDS011;37915;53.254;6.598;2022-09-14T13:22:55;5.90;;;1.17;;
51883;SDS011;37915;53.254;6.598;2022-09-14T13:25:31;5.15;;;1.35;;
51883;SDS011;37915;53.254;6.598;2022-09-14T13:28:04;7.28;;;1.30;;
51883;SDS011;37915;53.254;6.598;2022-09-14T13:30:36;5.00;;;1.40;;
51883;SDS011;37915;53.254;6.598;2022-09-14T13:33:02;2.65;;;0.90;;
51883;SDS011;37915;53.254;6.598;2022-09-14T13:37:53;7.78;;;1.65;;
51883;SDS011;37915;53.254;6.598;2022-09-14T13:40:24;4.55;;;1.20;;
51883;SDS011;37915;53.254;6.598;2022-09-14T13:42:52;6.97;;;1.40;;
51883;SDS011;37915;53.254;6.598;2022-09-14T13:45:18;4.25;;;1.17;;
51883;SDS011;37915;53.254;6.598;2022-09-14T13:47:45;3.67;;;1.17;;
51883;SDS011;37915;53.254;6.598;2022-09-14T13:50:11;4.72;;;1.42;;
51883;SDS011;37915;53.254;6.598;2022-09-14T13:52:39;6.43;;;1.13;;
51883;SDS011;37915;53.254;6.598;2022-09-14T14:00:28;6.60;;;1.33;;
51883;SDS011;37915;53.254;6.598;2022-09-14T14:03:00;5.45;;;1.00;;
51883;SDS011;37915;53.254;6.598;2022-09-14T14:07:54;4.28;;;1.30;;
51883;SDS011;37915;53.254;6.598;2022-09-14T14:10:24;3.88;;;1.10;;
51883;SDS011;37915;53.254;6.598;2022-09-14T14:12:53;3.20;;;0.80;;
51883;SDS011;37915;53.254;6.598;2022-09-14T14:17:44;5.00;;;1.20;;
51883;SDS011;37915;53.254;6.598;2022-09-14T14:25:50;3.70;;;0.90;;
51883;SDS011;37915;53.254;6.598;2022-09-14T14:28:26;3.50;;;0.80;;
51883;SDS011;37915;53.254;6.598;2022-09-14T14:30:53;4.60;;;1.05;;
51883;SDS011;37915;53.254;6.598;2022-09-14T14:33:20;3.25;;;0.90;;
51883;SDS011;37915;53.254;6.598;2022-09-14T14:35:47;4.60;;;1.25;;
51883;SDS011;37915;53.254;6.598;2022-09-14T14:38:16;3.13;;;1.05;;
51883;SDS011;37915;53.254;6.598;2022-09-14T14:40:42;3.45;;;1.00;;
51883;SDS011;37915;53.254;6.598;2022-09-14T14:43:15;5.07;;;1.30;;
51883;SDS011;37915;53.254;6.598;2022-09-14T14:45:43;4.80;;;1.00;;
51883;SDS011;37915;53.254;6.598;2022-09-14T14:48:10;4.30;;;1.25;;
51883;SDS011;37915;53.254;6.598;2022-09-14T14:50:36;4.28;;;1.10;;
51883;SDS011;37915;53.254;6.598;2022-09-14T14:53:03;4.82;;;1.30;;
51883;SDS011;37915;53.254;6.598;2022-09-14T14:55:30;4.68;;;1.00;;
51883;SDS011;37915;53.254;6.598;2022-09-14T14:58:00;4.32;;;1.10;;
51883;SDS011;37915;53.254;6.598;2022-09-14T15:00:32;3.88;;;0.82;;
51883;SDS011;37915;53.254;6.598;2022-09-14T15:02:59;3.55;;;1.20;;
51883;SDS011;37915;53.254;6.598;2022-09-14T15:05:25;6.75;;;1.17;;
51883;SDS011;37915;53.254;6.598;2022-09-14T15:07:51;3.65;;;1.08;;
51883;SDS011;37915;53.254;6.598;2022-09-14T15:10:19;3.58;;;1.10;;
51883;SDS011;37915;53.254;6.598;2022-09-14T15:12:46;5.15;;;1.73;;
51883;SDS011;37915;53.254;6.598;2022-09-14T15:15:13;2.90;;;0.93;;
51883;SDS011;37915;53.254;6.598;2022-09-14T15:17:40;3.60;;;1.05;;
51883;SDS011;37915;53.254;6.598;2022-09-14T15:20:07;4.78;;;0.95;;
51883;SDS011;37915;53.254;6.598;2022-09-14T15:22:33;3.92;;;1.00;;
51883;SDS011;37915;53.254;6.598;2022-09-14T15:25:00;3.10;;;1.05;;
51883;SDS011;37915;53.254;6.598;2022-09-14T15:27:26;3.55;;;0.95;;
51883;SDS011;37915;53.254;6.598;2022-09-14T15:29:52;2.92;;;0.80;;
51883;SDS011;37915;53.254;6.598;2022-09-14T15:32:17;4.97;;;1.00;;
51883;SDS011;37915;53.254;6.598;2022-09-14T15:34:43;2.97;;;1.08;;
51883;SDS011;37915;53.254;6.598;2022-09-14T15:37:09;2.50;;;0.95;;
51883;SDS011;37915;53.254;6.598;2022-09-14T15:39:35;4.65;;;1.05;;
51883;SDS011;37915;53.254;6.598;2022-09-14T15:42:00;3.67;;;0.93;;
51883;SDS011;37915;53.254;6.598;2022-09-14T15:44:27;3.65;;;1.20;;
51883;SDS011;37915;53.254;6.598;2022-09-14T15:46:55;6.30;;;1.23;;
51883;SDS011;37915;53.254;6.598;2022-09-14T15:49:22;5.05;;;1.98;;
51883;SDS011;37915;53.254;6.598;2022-09-14T15:51:49;5.90;;;1.20;;
51883;SDS011;37915;53.254;6.598;2022-09-14T15:54:17;4.97;;;0.98;;
51883;SDS011;37915;53.254;6.598;2022-09-14T15:56:47;5.13;;;1.15;;
51883;SDS011;37915;53.254;6.598;2022-09-14T15:59:14;3.85;;;1.30;;
51883;SDS011;37915;53.254;6.598;2022-09-14T16:01:41;5.38;;;1.15;;
51883;SDS011;37915;53.254;6.598;2022-09-14T16:04:07;3.17;;;0.90;;
51883;SDS011;37915;53.254;6.598;2022-09-14T16:06:33;8.00;;;1.45;;
51883;SDS011;37915;53.254;6.598;2022-09-14T16:09:00;4.70;;;0.93;;
51883;SDS011;37915;53.254;6.598;2022-09-14T16:11:26;4.30;;;1.17;;
51883;SDS011;37915;53.254;6.598;2022-09-14T16:13:52;1.92;;;0.85;;
51883;SDS011;37915;53.254;6.598;2022-09-14T16:16:18;3.92;;;1.13;;
51883;SDS011;37915;53.254;6.598;2022-09-14T16:18:45;4.38;;;1.25;;
51883;SDS011;37915;53.254;6.598;2022-09-14T16:21:22;5.88;;;1.55;;
51883;SDS011;37915;53.254;6.598;2022-09-14T16:23:50;3.83;;;1.00;;
51883;SDS011;37915;53.254;6.598;2022-09-14T16:26:23;2.65;;;1.00;;
51883;SDS011;37915;53.254;6.598;2022-09-14T16:28:51;4.18;;;1.13;;
51883;SDS011;37915;53.254;6.598;2022-09-14T16:31:21;9.80;;;1.95;;
51883;SDS011;37915;53.254;6.598;2022-09-14T16:33:50;3.97;;;1.10;;
51883;SDS011;37915;53.254;6.598;2022-09-14T16:36:21;4.32;;;1.00;;
51883;SDS011;37915;53.254;6.598;2022-09-14T16:38:50;5.78;;;1.25;;
51883;SDS011;37915;53.254;6.598;2022-09-14T16:41:16;4.97;;;1.30;;
51883;SDS011;37915;53.254;6.598;2022-09-14T16:43:43;5.38;;;1.10;;
51883;SDS011;37915;53.254;6.598;2022-09-14T16:46:10;3.55;;;1.08;;
51883;SDS011;37915;53.254;6.598;2022-09-14T16:48:43;4.43;;;1.10;;
51883;SDS011;37915;53.254;6.598;2022-09-14T16:51:11;4.32;;;0.90;;
51883;SDS011;37915;53.254;6.598;2022-09-14T16:53:39;5.97;;;1.10;;
51883;SDS011;37915;53.254;6.598;2022-09-14T16:56:10;3.13;;;1.00;;
51883;SDS011;37915;53.254;6.598;2022-09-14T16:58:39;3.65;;;1.20;;
51883;SDS011;37915;53.254;6.598;2022-09-14T17:01:06;6.45;;;1.65;;
51883;SDS011;37915;53.254;6.598;2022-09-14T17:03:35;5.30;;;1.67;;
51883;SDS011;37915;53.254;6.598;2022-09-14T17:06:02;5.57;;;1.17;;
51883;SDS011;37915;53.254;6.598;2022-09-14T17:08:30;3.58;;;1.35;;
51883;SDS011;37915;53.254;6.598;2022-09-14T17:10:57;4.40;;;1.50;;
51883;SDS011;37915;53.254;6.598;2022-09-14T17:13:24;5.35;;;1.17;;
51883;SDS011;37915;53.254;6.598;2022-09-14T17:15:50;3.75;;;1.20;;
51883;SDS011;37915;53.254;6.598;2022-09-14T17:18:17;6.32;;;1.13;;
51883;SDS011;37915;53.254;6.598;2022-09-14T17:20:55;3.45;;;1.35;;
51883;SDS011;37915;53.254;6.598;2022-09-14T17:23:22;4.65;;;1.20;;
51883;SDS011;37915;53.254;6.598;2022-09-14T17:25:48;3.97;;;1.13;;
51883;SDS011;37915;53.254;6.598;2022-09-14T17:28:14;7.78;;;1.45;;
51883;SDS011;37915;53.254;6.598;2022-09-14T17:30:41;6.47;;;1.45;;
51883;SDS011;37915;53.254;6.598;2022-09-14T17:33:07;3.60;;;1.40;;
51883;SDS011;37915;53.254;6.598;2022-09-14T17:35:33;4.78;;;1.20;;
51883;SDS011;37915;53.254;6.598;2022-09-14T17:37:59;3.53;;;1.10;;
51883;SDS011;37915;53.254;6.598;2022-09-14T17:40:27;4.55;;;1.60;;
51883;SDS011;37915;53.254;6.598;2022-09-14T17:42:54;5.50;;;1.15;;
51883;SDS011;37915;53.254;6.598;2022-09-14T17:45:20;4.25;;;1.05;;
51883;SDS011;37915;53.254;6.598;2022-09-14T17:47:45;6.20;;;1.58;;